Time;durP1;ratioP1;P1;durP2;ratioP2;P2;SDS_P1;SDS_P2;PMS_P1;PMS_P2;Temp;Humidity;BMP_temperature;BMP_pressure;BME280_temperature;BME280_humidity;BME280_pressure;Samples;Min_cycle;Max_cycle;Signal;HPM_P1;HPM_P2
2022/09/08 00:00:04;;;;;;;19.90;7.20;;;18.80;99.90;;;;;;5053762;28;20025;-77
2022/09/08 00:02:29;;;;;;;14.48;7.68;;;18.90;99.90;;;;;;5052873;28;20033;-76
2022/09/08 00:04:56;;;;;;;16.27;6.95;;;18.90;99.90;;;;;;5053847;28;20021;-77
2022/09/08 00:07:21;;;;;;;10.82;5.72;;;18.90;99.90;;;;;;5053213;28;20400;-77
2022/09/08 00:09:47;;;;;;;12.25;6.22;;;18.90;99.90;;;;;;5052830;28;20033;-77
2022/09/08 00:12:13;;;;;;;11.32;7.20;;;18.90;99.90;;;;;;5053566;28;20033;-77
2022/09/08 00:14:39;;;;;;;14.27;7.68;;;18.80;99.90;;;;;;5053469;28;20096;-77
2022/09/08 00:17:04;;;;;;;13.43;6.13;;;18.90;99.90;;;;;;5052773;28;20485;-77
2022/09/08 00:19:30;;;;;;;15.18;7.18;;;18.80;99.90;;;;;;5053581;28;20457;-77
2022/09/08 00:21:56;;;;;;;7.57;6.68;;;18.80;99.90;;;;;;5054262;28;20044;-77
2022/09/08 00:24:22;;;;;;;12.15;6.95;;;18.80;99.90;;;;;;5056972;28;20028;-76
2022/09/08 00:26:48;;;;;;;12.48;7.05;;;18.80;99.90;;;;;;5056897;28;20040;-77
2022/09/08 00:29:13;;;;;;;9.82;6.70;;;18.80;99.90;;;;;;5056117;28;20079;-77
2022/09/08 00:31:41;;;;;;;13.10;7.05;;;18.80;99.90;;;;;;5056833;28;20027;-77
2022/09/08 00:34:07;;;;;;;15.23;6.70;;;18.80;99.90;;;;;;5056927;28;20381;-79
2022/09/08 00:36:33;;;;;;;9.15;6.53;;;18.80;99.90;;;;;;5056476;28;20432;-77
2022/09/08 00:39:00;;;;;;;13.07;6.85;;;18.80;99.90;;;;;;5057152;28;20052;-78
2022/09/08 00:41:27;;;;;;;12.25;7.82;;;18.80;99.90;;;;;;5057341;28;20489;-78
2022/09/08 00:43:59;;;;;;;12.57;6.75;;;18.90;99.90;;;;;;5055926;28;20057;-76
2022/09/08 00:46:33;;;;;;;10.93;6.85;;;18.90;99.90;;;;;;5056430;28;20504;-77
2022/09/08 00:49:18;;;;;;;13.10;7.80;;;18.90;99.90;;;;;;5057204;28;20020;-78
2022/09/08 00:51:47;;;;;;;14.65;7.75;;;18.90;99.90;;;;;;5055841;28;20383;-77
2022/09/08 00:54:15;;;;;;;10.35;7.28;;;18.90;99.90;;;;;;5056263;28;20380;-77
2022/09/08 00:56:43;;;;;;;14.10;8.15;;;18.90;99.90;;;;;;5056413;28;20105;-77
2022/09/08 00:59:09;;;;;;;16.30;8.30;;;18.90;99.90;;;;;;5056044;28;20373;-77
2022/09/08 01:01:35;;;;;;;11.15;7.18;;;18.90;99.90;;;;;;5056646;28;20036;-77
2022/09/08 01:04:03;;;;;;;13.45;7.90;;;18.90;99.90;;;;;;5056152;28;20028;-76
2022/09/08 01:12:47;;;;;;;13.73;8.00;;;18.80;99.90;;;;;;5055912;28;20113;-77
2022/09/08 01:15:25;;;;;;;12.85;7.88;;;18.80;99.90;;;;;;5056298;28;20092;-77
2022/09/08 01:17:52;;;;;;;10.40;7.45;;;18.80;99.90;;;;;;5056227;28;20095;-77
2022/09/08 01:20:22;;;;;;;11.07;8.32;;;18.80;99.90;;;;;;5055123;28;20361;-77
2022/09/08 01:23:13;;;;;;;12.65;8.05;;;18.80;99.90;;;;;;5056572;28;20037;-77
2022/09/08 01:26:21;;;;;;;13.82;7.38;;;18.80;99.90;;;;;;5055513;28;20033;-77
2022/09/08 01:28:52;;;;;;;18.65;8.63;;;18.70;99.90;;;;;;5056159;28;20100;-76
2022/09/08 01:31:19;;;;;;;12.55;8.25;;;18.60;99.90;;;;;;5056131;28;20098;-76
2022/09/08 01:33:45;;;;;;;13.63;8.85;;;18.70;99.90;;;;;;5054486;28;20025;-76
2022/09/08 01:36:13;;;;;;;16.42;8.23;;;18.70;99.90;;;;;;5056016;28;20044;-77
2022/09/08 01:38:39;;;;;;;12.05;8.15;;;18.70;99.90;;;;;;5055777;28;20492;-76
2022/09/08 01:41:05;;;;;;;13.73;8.27;;;18.70;99.90;;;;;;5055059;28;20025;-76
2022/09/08 01:43:30;;;;;;;11.32;8.27;;;18.60;99.90;;;;;;5056227;28;20037;-77
2022/09/08 01:45:57;;;;;;;11.18;8.23;;;18.60;99.90;;;;;;5055611;28;20028;-77
2022/09/08 01:48:23;;;;;;;10.70;9.02;;;18.60;99.90;;;;;;5055397;28;20365;-76
2022/09/08 01:50:48;;;;;;;13.80;8.98;;;18.60;99.90;;;;;;5055949;28;20073;-76
2022/09/08 01:53:14;;;;;;;10.10;8.57;;;18.60;99.90;;;;;;5055606;28;20520;-76
2022/09/08 01:55:40;;;;;;;15.50;8.98;;;18.60;99.90;;;;;;5055598;28;20104;-77
2022/09/08 01:58:06;;;;;;;20.80;10.15;;;18.60;99.90;;;;;;5055728;28;20123;-78
2022/09/08 02:00:31;;;;;;;20.63;9.20;;;18.60;99.90;;;;;;5054767;28;20044;-77
2022/09/08 02:02:57;;;;;;;17.95;8.60;;;18.50;99.90;;;;;;5055261;28;20412;-77
2022/09/08 02:05:23;;;;;;;13.07;8.02;;;18.50;99.90;;;;;;5055120;28;20087;-78
2022/09/08 02:07:49;;;;;;;13.82;7.80;;;18.50;99.90;;;;;;5054374;28;20090;-78
2022/09/08 02:10:14;;;;;;;17.45;8.20;;;18.50;99.90;;;;;;5054888;28;20016;-76
2022/09/08 02:12:40;;;;;;;10.25;6.65;;;18.50;99.90;;;;;;5054622;28;20044;-76
2022/09/08 02:15:06;;;;;;;10.82;6.88;;;18.50;99.90;;;;;;5054358;28;20029;-75
2022/09/08 02:17:32;;;;;;;11.15;6.40;;;18.50;99.90;;;;;;5054591;28;20029;-76
2022/09/08 02:19:58;;;;;;;8.82;6.22;;;18.50;99.90;;;;;;5054925;28;20112;-77
2022/09/08 02:22:25;;;;;;;12.60;6.15;;;18.50;99.90;;;;;;5053632;28;20065;-77
2022/09/08 02:24:52;;;;;;;8.65;6.00;;;18.50;99.90;;;;;;5054623;28;20436;-77
2022/09/08 02:27:17;;;;;;;9.13;6.10;;;18.50;99.90;;;;;;5055509;28;20159;-78
2022/09/08 02:29:43;;;;;;;9.40;5.50;;;18.50;99.90;;;;;;5054535;28;20021;-76
2022/09/08 02:32:09;;;;;;;10.48;5.32;;;18.50;99.90;;;;;;5055126;28;20025;-77
2022/09/08 02:34:34;;;;;;;8.13;6.22;;;18.50;99.90;;;;;;5055245;28;20465;-76
2022/09/08 02:37:00;;;;;;;11.18;6.00;;;18.50;99.90;;;;;;5053968;28;20362;-76
2022/09/08 02:39:25;;;;;;;9.65;5.53;;;18.40;99.90;;;;;;5054971;28;20358;-76
2022/09/08 02:41:51;;;;;;;8.63;5.40;;;18.50;99.90;;;;;;5054986;28;20087;-76
2022/09/08 02:44:16;;;;;;;10.98;5.97;;;18.40;99.90;;;;;;5053440;28;20028;-76
2022/09/08 02:46:43;;;;;;;6.97;4.95;;;18.50;99.90;;;;;;5054143;28;20177;-77
2022/09/08 02:49:10;;;;;;;8.45;5.00;;;18.40;99.90;;;;;;5054286;28;20070;-74
2022/09/08 02:51:36;;;;;;;9.95;4.85;;;18.40;99.90;;;;;;5053752;28;20029;-77
2022/09/08 02:54:03;;;;;;;8.55;4.85;;;18.30;99.90;;;;;;5054786;28;20031;-78
2022/09/08 02:56:29;;;;;;;10.90;4.78;;;18.30;99.90;;;;;;5054562;28;20029;-77
2022/09/08 02:58:54;;;;;;;10.43;4.55;;;18.20;99.90;;;;;;5053575;28;20029;-76
2022/09/08 03:01:20;;;;;;;8.98;3.80;;;18.20;99.90;;;;;;5054161;28;20100;-76
2022/09/08 03:03:47;;;;;;;8.98;3.80;;;18.20;99.90;;;;;;5053528;28;20057;-77
2022/09/08 03:06:14;;;;;;;7.75;3.88;;;18.20;99.90;;;;;;5054375;28;20032;-76
2022/09/08 03:08:40;;;;;;;5.63;3.25;;;18.10;99.90;;;;;;5054204;28;20029;-76
2022/09/08 03:11:05;;;;;;;6.93;3.45;;;18.10;99.90;;;;;;5052966;28;20377;-76
2022/09/08 03:13:31;;;;;;;7.18;3.13;;;18.10;99.90;;;;;;5054124;28;20067;-77
2022/09/08 03:15:57;;;;;;;8.02;3.13;;;18.00;99.90;;;;;;5054228;28;20075;-76
2022/09/08 03:18:23;;;;;;;6.53;2.78;;;18.00;99.90;;;;;;5053499;28;20033;-77
2022/09/08 03:21:04;;;;;;;10.00;3.13;;;18.00;99.90;;;;;;5055421;28;20055;-78
2022/09/08 03:23:31;;;;;;;5.20;2.60;;;18.00;99.90;;;;;;5060064;28;20102;-76
2022/09/08 03:26:16;;;;;;;6.07;2.50;;;18.00;99.90;;;;;;5059836;28;20033;-77
2022/09/08 03:28:42;;;;;;;4.25;2.15;;;18.00;99.90;;;;;;5059898;28;20033;-77
2022/09/08 03:31:10;;;;;;;6.50;2.60;;;18.00;99.90;;;;;;5064475;28;20436;-77
2022/09/08 03:33:36;;;;;;;4.70;2.30;;;18.00;99.90;;;;;;5062027;28;20032;-77
2022/09/08 03:36:04;;;;;;;6.18;2.58;;;18.00;99.90;;;;;;5061410;28;20084;-77
2022/09/08 03:38:29;;;;;;;5.68;2.70;;;18.00;99.90;;;;;;5053642;28;20029;-76
2022/09/08 03:40:55;;;;;;;4.43;2.88;;;17.90;99.90;;;;;;5053146;28;20507;-76
2022/09/08 03:43:21;;;;;;;7.05;3.38;;;18.00;99.90;;;;;;5053704;28;20055;-76
2022/09/08 03:45:47;;;;;;;6.10;2.92;;;18.00;99.90;;;;;;5053543;28;20025;-77
2022/09/08 03:48:15;;;;;;;6.95;3.33;;;18.00;99.90;;;;;;5054201;28;20090;-77
2022/09/08 03:50:41;;;;;;;5.55;2.67;;;18.00;99.90;;;;;;5054292;28;20201;-77
2022/09/08 03:53:06;;;;;;;8.23;3.53;;;18.00;99.90;;;;;;5052629;28;20048;-75
2022/09/08 03:55:32;;;;;;;9.45;2.58;;;17.90;99.90;;;;;;5053000;28;20051;-77
2022/09/08 03:57:59;;;;;;;8.85;2.65;;;18.00;99.90;;;;;;5057250;28;20033;-78
2022/09/08 04:00:25;;;;;;;5.70;2.40;;;18.00;99.90;;;;;;5056959;28;20056;-78
2022/09/08 04:02:51;;;;;;;5.15;2.25;;;18.00;99.90;;;;;;5057575;28;20052;-77
2022/09/08 04:05:17;;;;;;;7.82;2.30;;;18.00;99.90;;;;;;5057122;28;20473;-77
2022/09/08 04:07:43;;;;;;;4.45;2.22;;;17.90;99.90;;;;;;5056523;28;20041;-77
2022/09/08 04:10:11;;;;;;;5.55;2.50;;;18.00;99.90;;;;;;5057110;28;20029;-78
2022/09/08 04:12:37;;;;;;;7.20;2.92;;;17.90;99.90;;;;;;5057302;28;20032;-79
2022/09/08 04:15:03;;;;;;;3.10;2.35;;;17.90;99.90;;;;;;5056728;28;20372;-79
2022/09/08 04:17:28;;;;;;;5.63;2.67;;;17.80;99.90;;;;;;5057061;28;20461;-77
2022/09/08 04:19:54;;;;;;;11.18;4.13;;;17.80;99.90;;;;;;5056975;28;20023;-78
2022/09/08 04:22:21;;;;;;;3.63;2.63;;;17.70;99.90;;;;;;5055956;28;20500;-77
2022/09/08 04:24:48;;;;;;;5.30;2.58;;;17.70;99.90;;;;;;5057044;28;20025;-78
2022/09/08 04:27:14;;;;;;;6.30;2.67;;;17.60;99.90;;;;;;5056912;28;20481;-78
2022/09/08 04:29:39;;;;;;;3.58;2.63;;;17.60;99.90;;;;;;5056021;28;20115;-77
2022/09/08 04:32:07;;;;;;;5.78;3.40;;;17.60;99.90;;;;;;5056949;28;20029;-77
2022/09/08 04:34:33;;;;;;;6.05;3.08;;;17.60;99.90;;;;;;5056952;28;20021;-76
2022/09/08 04:36:59;;;;;;;3.33;2.63;;;17.60;99.90;;;;;;5056067;28;20423;-77
2022/09/08 04:39:24;;;;;;;6.90;3.05;;;17.50;99.90;;;;;;5056747;28;20017;-76
2022/09/08 04:41:50;;;;;;;7.18;3.40;;;17.50;99.90;;;;;;5056776;28;20039;-76
2022/09/08 04:44:15;;;;;;;11.82;3.38;;;17.50;99.90;;;;;;5055929;28;20021;-76
2022/09/08 04:46:41;;;;;;;5.22;2.92;;;17.40;99.90;;;;;;5056862;28;20036;-75
2022/09/08 04:49:06;;;;;;;9.13;3.25;;;17.50;99.90;;;;;;5055509;28;20487;-76
2022/09/08 04:51:32;;;;;;;7.40;3.45;;;17.50;99.90;;;;;;5056583;28;20033;-77
2022/09/08 04:53:59;;;;;;;6.20;4.00;;;17.50;99.90;;;;;;5056412;28;20070;-77
2022/09/08 04:56:26;;;;;;;6.82;3.72;;;17.40;99.90;;;;;;5055526;28;20029;-76
2022/09/08 04:58:52;;;;;;;7.45;3.85;;;17.40;99.90;;;;;;5056317;28;20036;-76
2022/09/08 05:01:27;;;;;;;5.45;3.95;;;17.40;99.90;;;;;;5056067;28;20116;-76
2022/09/08 05:03:55;;;;;;;11.07;4.40;;;17.50;99.90;;;;;;5055728;28;20039;-77
2022/09/08 05:06:23;;;;;;;6.93;4.00;;;17.40;99.90;;;;;;5056326;28;20025;-77
2022/09/08 05:08:51;;;;;;;5.88;4.20;;;17.40;99.90;;;;;;5055467;28;20025;-77
2022/09/08 05:11:18;;;;;;;5.20;3.42;;;17.40;99.90;;;;;;5055642;28;20104;-77
2022/09/08 05:13:44;;;;;;;5.55;3.65;;;17.40;99.90;;;;;;5056191;28;20029;-77
2022/09/08 05:16:13;;;;;;;8.02;3.53;;;17.40;99.90;;;;;;5056212;28;20043;-76
2022/09/08 05:18:39;;;;;;;6.95;3.70;;;17.40;99.90;;;;;;5055268;28;20028;-76
2022/09/08 05:21:06;;;;;;;5.30;3.88;;;17.40;99.90;;;;;;5056456;28;20495;-75
2022/09/08 05:23:32;;;;;;;6.63;3.72;;;17.30;99.90;;;;;;5056135;28;20094;-76
2022/09/08 05:26:01;;;;;;;6.47;3.90;;;17.40;99.90;;;;;;5056024;28;20033;-76
2022/09/08 05:28:29;;;;;;;8.30;4.05;;;17.40;99.90;;;;;;5055525;28;20089;-77
2022/09/08 05:30:59;;;;;;;7.40;4.18;;;17.40;99.90;;;;;;5056852;28;20036;-76
2022/09/08 05:33:24;;;;;;;7.82;4.20;;;17.40;99.90;;;;;;5054790;28;20078;-76
2022/09/08 05:35:51;;;;;;;4.85;3.90;;;17.30;99.90;;;;;;5056218;28;20424;-76
2022/09/08 05:38:17;;;;;;;7.70;4.45;;;17.40;99.90;;;;;;5055827;28;20029;-76
2022/09/08 05:40:43;;;;;;;7.10;5.30;;;17.30;99.90;;;;;;5054916;28;20131;-76
2022/09/08 05:43:08;;;;;;;11.18;5.10;;;17.40;99.90;;;;;;5055575;28;20084;-76
2022/09/08 05:45:34;;;;;;;7.15;5.20;;;17.40;99.90;;;;;;5054521;28;20045;-76
2022/09/08 05:48:00;;;;;;;7.80;5.82;;;17.40;99.90;;;;;;5055340;28;20037;-77
2022/09/08 05:50:26;;;;;;;7.97;5.88;;;17.40;99.90;;;;;;5055301;28;20021;-77
2022/09/08 05:52:52;;;;;;;11.18;7.95;;;17.40;99.90;;;;;;5054696;28;20028;-77
2022/09/08 05:55:17;;;;;;;12.38;8.05;;;17.50;99.90;;;;;;5055989;28;20056;-77
2022/09/08 05:57:43;;;;;;;8.95;7.90;;;17.40;99.90;;;;;;5055321;28;20029;-78
2022/09/08 06:00:10;;;;;;;15.43;9.25;;;17.40;99.90;;;;;;5054483;28;20033;-78
2022/09/08 06:02:36;;;;;;;10.65;8.73;;;17.40;99.90;;;;;;5055170;28;20063;-77
2022/09/08 06:05:01;;;;;;;12.88;8.93;;;17.40;99.90;;;;;;5055001;28;20036;-77
2022/09/08 06:07:27;;;;;;;15.93;9.05;;;17.40;99.90;;;;;;5054254;28;20033;-77
2022/09/08 06:09:53;;;;;;;10.18;8.38;;;17.40;99.90;;;;;;5054966;28;20052;-77
2022/09/08 06:12:19;;;;;;;10.07;8.68;;;17.30;99.90;;;;;;5054684;28;20358;-76
2022/09/08 06:14:45;;;;;;;10.18;8.30;;;17.40;99.90;;;;;;5054189;28;20428;-77
2022/09/08 06:17:11;;;;;;;10.43;8.63;;;17.40;99.90;;;;;;5054967;28;20032;-77
2022/09/08 06:19:37;;;;;;;10.05;8.85;;;17.40;99.90;;;;;;5054693;28;20116;-76
2022/09/08 06:22:03;;;;;;;11.45;8.30;;;17.50;99.90;;;;;;5053811;28;20124;-76
2022/09/08 06:24:29;;;;;;;12.05;8.63;;;17.50;99.90;;;;;;5054652;28;20036;-76
2022/09/08 06:27:07;;;;;;;10.07;8.55;;;17.50;99.90;;;;;;5055103;28;20040;-76
2022/09/08 06:29:44;;;;;;;10.38;8.32;;;17.50;99.90;;;;;;5054022;28;20104;-76
2022/09/08 06:32:51;;;;;;;11.82;8.27;;;17.50;99.90;;;;;;5054685;28;20029;-76
2022/09/08 06:35:17;;;;;;;11.65;8.32;;;17.50;99.90;;;;;;5053823;28;20027;-76
2022/09/08 06:37:59;;;;;;;13.98;9.57;;;17.40;99.90;;;;;;5054341;28;20013;-76
2022/09/08 06:40:35;;;;;;;11.60;8.80;;;17.50;99.90;;;;;;5055333;28;20068;-76
2022/09/08 06:43:07;;;;;;;12.48;8.80;;;17.50;99.90;;;;;;5055004;28;20055;-76
2022/09/08 06:45:39;;;;;;;13.60;9.73;;;17.50;99.90;;;;;;5055951;28;20028;-76
2022/09/08 06:48:11;;;;;;;14.68;8.55;;;17.50;99.90;;;;;;5055440;28;20373;-76
2022/09/08 06:50:48;;;;;;;9.70;8.80;;;17.50;99.90;;;;;;5054544;28;20028;-74
2022/09/08 06:53:23;;;;;;;10.65;7.75;;;17.50;99.90;;;;;;5055306;28;20033;-75
2022/09/08 06:56:01;;;;;;;11.20;7.07;;;17.50;99.90;;;;;;5054033;28;20021;-76
2022/09/08 06:58:31;;;;;;;12.85;7.47;;;17.50;99.90;;;;;;5054835;28;20484;-75
2022/09/08 07:01:09;;;;;;;8.88;7.95;;;17.50;99.90;;;;;;5054259;28;20029;-76
2022/09/08 07:03:54;;;;;;;8.93;7.72;;;17.60;99.90;;;;;;5053812;28;20033;-76
2022/09/08 07:06:24;;;;;;;8.98;8.07;;;17.60;99.90;;;;;;5054484;28;20090;-76
2022/09/08 07:09:13;;;;;;;14.02;9.40;;;17.60;99.90;;;;;;5054313;28;20025;-77
2022/09/08 07:12:08;;;;;;;13.18;10.32;;;17.70;99.90;;;;;;5054012;28;20052;-74
2022/09/08 07:14:48;;;;;;;11.25;10.05;;;17.70;99.90;;;;;;5054210;28;20028;-77
2022/09/08 07:17:32;;;;;;;13.73;10.02;;;17.80;99.90;;;;;;5053421;28;20020;-76
2022/09/08 07:19:57;;;;;;;11.65;10.43;;;17.90;99.90;;;;;;5053666;28;20033;-76
2022/09/08 07:22:34;;;;;;;12.68;10.70;;;17.90;99.90;;;;;;5053771;28;20056;-76
2022/09/08 07:25:27;;;;;;;14.00;10.00;;;18.00;99.90;;;;;;5053612;28;20025;-75
2022/09/08 07:28:04;;;;;;;12.65;10.55;;;18.00;99.90;;;;;;5054481;28;20029;-77
2022/09/08 07:30:30;;;;;;;11.80;10.63;;;18.10;99.90;;;;;;5054055;28;20032;-75
2022/09/08 07:33:04;;;;;;;16.75;12.38;;;18.10;99.90;;;;;;5053092;28;20480;-76
2022/09/08 07:35:54;;;;;;;14.40;11.30;;;18.20;99.90;;;;;;5053494;28;20029;-77
2022/09/08 07:38:51;;;;;;;13.00;11.32;;;18.20;99.90;;;;;;5052761;28;20024;-77
2022/09/08 07:41:30;;;;;;;14.82;11.30;;;18.30;99.90;;;;;;5053838;28;20056;-77
2022/09/08 07:44:00;;;;;;;19.23;14.73;;;18.40;99.90;;;;;;5053712;28;20380;-76
2022/09/08 07:46:43;;;;;;;14.00;12.68;;;18.50;99.90;;;;;;5053220;28;20083;-77
2022/09/08 07:49:42;;;;;;;15.13;12.52;;;18.60;99.90;;;;;;5054076;28;20021;-77
2022/09/08 07:52:40;;;;;;;13.68;12.40;;;18.70;99.90;;;;;;5053689;28;20040;-75
2022/09/08 07:55:30;;;;;;;16.27;13.18;;;18.80;99.90;;;;;;5053131;28;20115;-75
2022/09/08 07:58:21;;;;;;;14.75;13.32;;;18.90;99.90;;;;;;5054671;28;20381;-77
2022/09/08 08:01:08;;;;;;;14.07;12.77;;;19.00;99.90;;;;;;5054328;28;20013;-76
2022/09/08 08:03:52;;;;;;;14.02;12.65;;;19.20;99.90;;;;;;5054406;28;20032;-76
2022/09/08 08:06:38;;;;;;;11.98;11.00;;;19.30;99.90;;;;;;5052987;28;20021;-76
2022/09/08 08:09:09;;;;;;;11.18;10.25;;;19.30;99.90;;;;;;5053812;28;20029;-76
2022/09/08 08:11:41;;;;;;;11.80;10.70;;;19.30;99.90;;;;;;5053993;28;20461;-76
2022/09/08 08:14:15;;;;;;;10.13;9.32;;;19.30;99.90;;;;;;5053495;28;20021;-76
2022/09/08 08:17:02;;;;;;;9.05;8.15;;;19.30;99.90;;;;;;5054229;28;20037;-75
2022/09/08 08:19:37;;;;;;;13.50;9.60;;;19.30;99.90;;;;;;5053810;28;20033;-75
2022/09/08 08:22:34;;;;;;;9.02;7.78;;;19.20;99.90;;;;;;5052620;28;20113;-75
2022/09/08 08:25:31;;;;;;;8.07;7.35;;;19.30;99.90;;;;;;5053434;28;20032;-75
2022/09/08 08:28:16;;;;;;;8.82;8.00;;;19.40;99.90;;;;;;5052254;28;20112;-76
2022/09/08 08:30:50;;;;;;;12.88;7.72;;;19.50;99.90;;;;;;5053353;28;20095;-76
2022/09/08 08:33:20;;;;;;;9.75;7.40;;;19.70;99.90;;;;;;5053408;28;20019;-76
2022/09/08 08:35:49;;;;;;;6.82;5.45;;;19.90;99.90;;;;;;5051555;28;20032;-75
2022/09/08 08:38:22;;;;;;;6.22;5.63;;;20.10;99.90;;;;;;5053117;28;20488;-75
2022/09/08 08:40:56;;;;;;;8.15;6.10;;;20.30;99.90;;;;;;5053290;28;20032;-75
2022/09/08 08:43:24;;;;;;;7.72;5.55;;;20.40;99.90;;;;;;5055279;28;20472;-76
2022/09/08 08:46:41;;;;;;;7.30;4.97;;;20.60;99.90;;;;;;5056876;28;20021;-76
2022/09/08 08:49:35;;;;;;;6.10;4.85;;;20.50;99.90;;;;;;5044157;28;20049;-76
2022/09/08 08:52:17;;;;;;;8.43;4.25;;;20.40;99.90;;;;;;5057025;28;20102;-76
2022/09/08 08:54:43;;;;;;;7.70;4.82;;;20.30;99.90;;;;;;5057564;28;20029;-75
2022/09/08 08:57:53;;;;;;;6.82;4.35;;;20.20;99.90;;;;;;5056734;28;20024;-76
2022/09/08 09:00:19;;;;;;;6.40;5.80;;;20.10;99.90;;;;;;5034957;28;20036;-76
2022/09/08 09:03:06;;;;;;;9.90;7.05;;;20.00;99.90;;;;;;5053218;28;20093;-76
2022/09/08 09:06:08;;;;;;;9.05;8.18;;;19.90;99.90;;;;;;5056630;28;20025;-76
2022/09/08 09:08:39;;;;;;;10.43;9.02;;;19.70;99.90;;;;;;5056441;28;20067;-76
2022/09/08 09:11:19;;;;;;;13.18;9.38;;;19.60;99.90;;;;;;5055820;28;20048;-76
2022/09/08 09:13:48;;;;;;;11.57;8.85;;;19.50;99.90;;;;;;5056382;28;20028;-75
2022/09/08 09:16:32;;;;;;;11.32;8.05;;;19.60;99.90;;;;;;5056597;28;20079;-75
2022/09/08 09:19:15;;;;;;;8.25;7.45;;;19.90;99.90;;;;;;5056261;28;20032;-75
2022/09/08 09:22:02;;;;;;;9.70;7.45;;;20.10;99.90;;;;;;5055987;28;20025;-77
2022/09/08 09:25:01;;;;;;;11.48;6.00;;;20.30;99.90;;;;;;5055835;28;20033;-76
2022/09/08 09:27:27;;;;;;;8.57;6.43;;;20.40;99.90;;;;;;5056403;28;20052;-77
2022/09/08 09:30:21;;;;;;;10.80;6.88;;;20.40;99.90;;;;;;5056756;28;20017;-76
2022/09/08 09:33:14;;;;;;;7.85;6.57;;;20.30;99.90;;;;;;5055608;28;20074;-77
2022/09/08 09:36:09;;;;;;;8.32;6.35;;;20.40;99.90;;;;;;5056763;28;20036;-77
2022/09/08 09:39:00;;;;;;;12.63;6.00;;;20.50;99.90;;;;;;5055645;28;20025;-76
2022/09/08 09:41:41;;;;;;;7.70;5.38;;;20.50;99.90;;;;;;5055738;28;20028;-76
2022/09/08 09:44:48;;;;;;;7.45;5.53;;;20.40;99.90;;;;;;5055950;28;20043;-75
2022/09/08 09:47:22;;;;;;;13.98;5.03;;;20.30;99.90;;;;;;5045259;28;20052;-77
2022/09/08 09:50:14;;;;;;;9.15;4.35;;;20.40;99.90;;;;;;5056561;28;20025;-77
2022/09/08 09:52:59;;;;;;;6.85;5.13;;;20.30;99.90;;;;;;5055197;28;20032;-76
2022/09/08 09:55:44;;;;;;;6.47;5.63;;;20.40;99.90;;;;;;5055185;28;20457;-75
2022/09/08 09:58:47;;;;;;;7.88;6.15;;;20.40;99.90;;;;;;5054549;28;20017;-77
2022/09/08 10:01:43;;;;;;;10.52;7.15;;;20.40;99.90;;;;;;5055396;28;20096;-77
2022/09/08 10:04:39;;;;;;;11.75;8.10;;;20.40;99.90;;;;;;5055399;28;20029;-76
2022/09/08 10:07:47;;;;;;;15.70;8.65;;;20.40;99.90;;;;;;5054796;28;20060;-76
2022/09/08 10:10:34;;;;;;;10.68;7.20;;;20.50;99.90;;;;;;5055356;28;20032;-77
2022/09/08 10:13:36;;;;;;;9.77;7.20;;;20.70;99.90;;;;;;5054620;28;20067;-76
2022/09/08 10:16:23;;;;;;;12.40;6.50;;;20.80;99.90;;;;;;5055336;28;20487;-77
2022/09/08 10:19:21;;;;;;;6.30;5.65;;;20.90;99.90;;;;;;5055183;28;20021;-76
2022/09/08 10:22:06;;;;;;;9.27;5.25;;;21.00;99.90;;;;;;5054896;28;20060;-78
2022/09/08 10:24:46;;;;;;;7.93;4.18;;;21.10;99.90;;;;;;5055320;28;20025;-77
2022/09/08 10:27:40;;;;;;;5.43;4.10;;;21.10;99.90;;;;;;5054699;28;20049;-77
2022/09/08 10:30:38;;;;;;;9.30;4.20;;;21.10;99.90;;;;;;5055237;28;20025;-77
2022/09/08 10:33:41;;;;;;;10.18;4.60;;;21.10;99.90;;;;;;5055157;28;20025;-78
2022/09/08 10:36:11;;;;;;;5.72;4.10;;;21.00;99.90;;;;;;5055166;28;20028;-77
2022/09/08 10:38:59;;;;;;;8.47;4.40;;;21.00;99.90;;;;;;5055132;28;20033;-77
2022/09/08 10:41:48;;;;;;;9.30;4.22;;;21.20;99.90;;;;;;5054088;28;20025;-76
2022/09/08 10:44:20;;;;;;;7.47;4.07;;;21.30;99.90;;;;;;5053196;28;20029;-77
2022/09/08 10:47:23;;;;;;;7.95;4.25;;;21.40;99.90;;;;;;5054238;28;20037;-78
2022/09/08 10:50:08;;;;;;;7.80;4.25;;;21.50;99.90;;;;;;5053784;28;20028;-77
2022/09/08 10:52:53;;;;;;;9.20;3.42;;;21.50;99.90;;;;;;5054111;28;20052;-79
2022/09/08 10:55:37;;;;;;;9.23;3.60;;;21.70;99.90;;;;;;5053663;28;20029;-77
2022/09/08 10:58:24;;;;;;;7.00;3.60;;;21.80;99.90;;;;;;5054475;28;20029;-78
2022/09/08 11:00:50;;;;;;;7.43;3.55;;;22.10;99.90;;;;;;5054407;28;20380;-78
2022/09/08 11:03:45;;;;;;;9.40;3.58;;;22.20;99.90;;;;;;5053703;28;20017;-78
2022/09/08 11:06:55;;;;;;;7.40;3.78;;;22.30;99.90;;;;;;5042688;28;20481;-77
2022/09/08 11:09:42;;;;;;;8.77;4.00;;;22.30;99.90;;;;;;5047540;28;20098;-77
2022/09/08 11:12:26;;;;;;;11.90;3.78;;;22.40;99.90;;;;;;5053663;28;20033;-77
2022/09/08 11:15:34;;;;;;;7.57;3.75;;;22.50;99.90;;;;;;5054538;28;20441;-77
2022/09/08 11:18:31;;;;;;;6.07;3.13;;;22.50;99.90;;;;;;5042336;28;20065;-77
2022/09/08 11:21:03;;;;;;;7.25;3.58;;;22.50;99.90;;;;;;5054853;28;20025;-77
2022/09/08 11:24:10;;;;;;;8.02;3.58;;;22.30;99.90;;;;;;5053507;28;20053;-79
2022/09/08 11:27:02;;;;;;;7.43;2.97;;;22.30;99.90;;;;;;5054724;28;20021;-79
2022/09/08 11:29:36;;;;;;;11.75;3.05;;;22.30;99.90;;;;;;5054273;28;20108;-79
2022/09/08 11:32:16;;;;;;;7.57;2.20;;;22.30;99.90;;;;;;5053680;28;20025;-79
2022/09/08 11:34:59;;;;;;;7.55;2.10;;;22.30;99.90;;;;;;5054880;28;20021;-78
2022/09/08 11:38:00;;;;;;;6.35;2.22;;;22.40;99.90;;;;;;5054079;28;20536;-78
2022/09/08 11:41:02;;;;;;;6.38;1.67;;;22.40;99.90;;;;;;5054788;28;20131;-76
2022/09/08 11:43:42;;;;;;;11.80;2.55;;;22.20;99.90;;;;;;5055454;28;20434;-78
2022/09/08 11:46:17;;;;;;;;;;;22.00;99.90;;;;;;5054629;28;20025;-78
2022/09/08 11:49:01;;;;;;;10.27;2.80;;;21.70;99.90;;;;;;5054916;28;20372;-77
2022/09/08 11:51:41;;;;;;;6.28;2.15;;;21.50;99.90;;;;;;5054092;28;20032;-77
2022/09/08 11:54:19;;;;;;;;;;;21.30;99.90;;;;;;5055544;28;20488;-77
2022/09/08 11:57:10;;;;;;;6.20;2.15;;;21.40;99.90;;;;;;5054238;28;19913;-78
2022/09/08 12:00:06;;;;;;;5.85;3.03;;;21.40;99.90;;;;;;5052936;28;20031;-77
2022/09/08 12:02:50;;;;;;;8.30;2.45;;;21.60;99.90;;;;;;5054317;28;20472;-78
2022/09/08 12:05:19;;;;;;;7.45;2.05;;;21.80;99.90;;;;;;5053205;28;20017;-78
2022/09/08 12:08:02;;;;;;;8.48;1.83;;;21.90;99.90;;;;;;5053439;28;20772;-77
2022/09/08 12:10:57;;;;;;;4.97;2.17;;;21.90;99.90;;;;;;5054643;28;20025;-78
2022/09/08 12:13:58;;;;;;;6.20;2.15;;;22.00;99.90;;;;;;5054229;28;20388;-77
2022/09/08 12:17:17;;;;;;;9.75;2.53;;;22.10;99.90;;;;;;5054194;28;20083;-77
2022/09/08 12:19:58;;;;;;;4.95;2.05;;;22.20;99.90;;;;;;5035148;28;20069;-78
2022/09/08 12:22:26;;;;;;;;;;;22.30;99.90;;;;;;5056665;28;20075;-78
2022/09/08 12:25:22;;;;;;;7.07;2.25;;;22.40;99.90;;;;;;5058761;28;19995;-78
2022/09/08 12:28:10;;;;;;;4.55;2.13;;;22.40;99.90;;;;;;5062969;28;20040;-77
2022/09/08 12:30:53;;;;;;;5.95;2.25;;;22.40;99.90;;;;;;5062897;28;20104;-76
2022/09/08 12:33:57;;;;;;;6.22;2.15;;;22.40;99.90;;;;;;5062340;28;20029;-76
2022/09/08 12:36:42;;;;;;;3.20;2.17;;;22.60;99.90;;;;;;5068221;28;20036;-78
2022/09/08 12:39:28;;;;;;;3.92;1.83;;;22.80;99.90;;;;;;5069969;28;20067;-78
2022/09/08 12:42:15;;;;;;;4.85;1.98;;;22.90;99.20;;;;;;5067952;28;20084;-78
2022/09/08 12:44:40;;;;;;;6.97;1.90;;;23.00;99.00;;;;;;5058573;28;20040;-78
2022/09/08 12:47:43;;;;;;;5.68;2.03;;;23.00;99.70;;;;;;5057643;28;20036;-77
2022/09/08 12:50:25;;;;;;;7.57;2.42;;;23.10;99.40;;;;;;5046906;28;20037;-78
2022/09/08 12:53:12;;;;;;;8.80;2.22;;;23.10;99.10;;;;;;5058096;28;20047;-77
2022/09/08 12:55:54;;;;;;;6.07;2.10;;;23.20;99.10;;;;;;5057235;28;20036;-78
2022/09/08 12:58:26;;;;;;;4.50;2.33;;;23.20;98.50;;;;;;5057797;28;20123;-78
2022/09/08 13:00:57;;;;;;;5.88;1.70;;;23.30;98.70;;;;;;5057226;28;20017;-77
2022/09/08 13:03:35;;;;;;;9.75;2.53;;;23.40;98.60;;;;;;5056213;28;20103;-77
2022/09/08 13:06:19;;;;;;;6.10;2.30;;;23.40;98.10;;;;;;5056393;28;20106;-77
2022/09/08 13:09:13;;;;;;;5.93;2.10;;;23.40;98.70;;;;;;5055955;28;20520;-78
2022/09/08 13:11:56;;;;;;;5.10;1.75;;;23.20;98.20;;;;;;5056826;28;20057;-77
2022/09/08 13:14:56;;;;;;;6.50;1.77;;;23.00;98.30;;;;;;5056379;28;20032;-77
2022/09/08 13:17:39;;;;;;;5.73;1.90;;;22.80;99.10;;;;;;5056320;28;20087;-78
2022/09/08 13:20:40;;;;;;;9.52;2.42;;;22.80;99.90;;;;;;5056623;28;20083;-77
2022/09/08 13:23:40;;;;;;;5.72;1.70;;;23.00;99.40;;;;;;5056060;28;20056;-77
2022/09/08 13:26:15;;;;;;;4.63;1.88;;;23.10;99.20;;;;;;5057056;28;20488;-77
2022/09/08 13:28:46;;;;;;;4.65;1.80;;;23.40;98.90;;;;;;5055494;28;20037;-77
2022/09/08 13:31:38;;;;;;;9.45;1.90;;;23.50;98.30;;;;;;5056300;28;20482;-77
2022/09/08 13:34:45;;;;;;;5.53;1.88;;;23.60;97.70;;;;;;5056846;28;20029;-79